createdAt,value
2024-01-06T00:01:05.915Z,28.50
2024-01-06T00:03:09.727Z,29.38
2024-01-06T00:05:13.071Z,29.63
2024-01-06T00:07:16.302Z,28.33
2024-01-06T00:09:19.509Z,28.60
2024-01-06T00:11:22.596Z,29.08
2024-01-06T00:13:25.747Z,27.70
2024-01-06T00:15:28.754Z,27.52
2024-01-06T00:17:33.259Z,28.00
2024-01-06T00:19:36.370Z,27.70
2024-01-06T00:21:39.472Z,28.13
2024-01-06T00:23:42.830Z,27.63
2024-01-06T00:25:45.945Z,29.73
2024-01-06T00:27:49.073Z,27.90
2024-01-06T00:29:52.308Z,27.20
2024-01-06T00:31:55.184Z,29.17
2024-01-06T00:33:59.864Z,27.38
2024-01-06T00:36:02.944Z,27.07
2024-01-06T00:38:06.084Z,27.20
2024-01-06T00:40:10.192Z,29.48
2024-01-06T00:42:13.391Z,28.70
2024-01-06T00:44:16.352Z,28.40
2024-01-06T00:46:19.538Z,27.75
2024-01-06T00:48:22.738Z,27.15
2024-01-06T00:50:27.448Z,27.20
2024-01-06T00:52:30.425Z,26.92
2024-01-06T00:54:33.485Z,26.08
2024-01-06T00:56:36.482Z,27.73
2024-01-06T00:58:39.489Z,28.65
2024-01-06T01:00:42.668Z,25.95
2024-01-06T01:02:45.973Z,25.98
2024-01-06T01:04:49.118Z,29.42
2024-01-06T01:06:53.793Z,29.10
2024-01-06T01:08:57.362Z,29.67
2024-01-06T01:11:00.929Z,30.25
2024-01-06T01:13:04.042Z,29.90
2024-01-06T01:15:08.087Z,28.60
2024-01-06T01:17:11.167Z,31.45
2024-01-06T01:19:14.405Z,31.30
2024-01-06T01:21:17.799Z,29.92
2024-01-06T01:23:22.472Z,30.05
2024-01-06T01:25:25.436Z,31.63
2024-01-06T01:27:28.451Z,29.15
2024-01-06T01:29:31.577Z,30.38
2024-01-06T01:31:35.943Z,30.73
2024-01-06T01:33:39.128Z,30.95
2024-01-06T01:35:42.395Z,29.85
2024-01-06T01:37:45.417Z,30.30
2024-01-06T01:39:49.943Z,30.85
2024-01-06T01:41:52.947Z,31.45
2024-01-06T01:43:59.764Z,31.15
2024-01-06T01:46:03.095Z,31.55
2024-01-06T01:48:07.348Z,29.95
2024-01-06T01:50:11.593Z,30.35
2024-01-06T01:52:15.210Z,31.85
2024-01-06T01:54:18.341Z,30.88
2024-01-06T01:56:23.268Z,29.08
2024-01-06T01:58:26.552Z,28.15
2024-01-06T02:00:30.055Z,29.30
2024-01-06T02:02:33.870Z,30.55
2024-01-06T02:04:37.238Z,31.08
2024-01-06T02:06:40.156Z,31.27
2024-01-06T02:08:43.448Z,31.25
2024-01-06T02:10:46.557Z,29.67
2024-01-06T02:12:53.147Z,29.70
2024-01-06T02:14:56.380Z,30.02
2024-01-06T02:16:59.697Z,29.67
2024-01-06T02:19:02.800Z,30.05
2024-01-06T02:21:08.204Z,30.52
2024-01-06T02:23:12.724Z,29.58
2024-01-06T02:25:15.959Z,28.40
2024-01-06T02:27:19.154Z,29.10
2024-01-06T02:29:22.236Z,30.05
2024-01-06T02:31:25.243Z,28.02
2024-01-06T02:33:28.475Z,29.40
2024-01-06T02:35:31.686Z,27.50
2024-01-06T02:37:34.721Z,29.65
2024-01-06T02:39:39.363Z,29.15
2024-01-06T02:41:42.523Z,27.70
2024-01-06T02:43:45.548Z,27.30
2024-01-06T02:45:48.864Z,27.42
2024-01-06T02:47:52.302Z,26.70
2024-01-06T02:49:55.463Z,27.42
2024-01-06T02:51:58.609Z,26.40
2024-01-06T02:54:01.820Z,25.63
2024-01-06T02:56:11.625Z,24.90
2024-01-06T02:58:14.717Z,29.98
2024-01-06T03:00:18.383Z,26.55
2024-01-06T03:02:21.484Z,25.92
2024-01-06T03:04:24.522Z,26.90
2024-01-06T03:06:28.728Z,26.40
2024-01-06T03:08:32.554Z,27.90
2024-01-06T03:10:35.921Z,26.17
2024-01-06T03:12:40.847Z,25.42
2024-01-06T03:14:43.960Z,25.95
2024-01-06T03:16:46.873Z,25.58
2024-01-06T03:18:50.791Z,25.42
2024-01-06T03:20:53.827Z,25.80
2024-01-06T03:22:57.069Z,25.98
2024-01-06T03:25:00.210Z,26.27
2024-01-06T03:27:04.075Z,26.77
2024-01-06T03:29:08.663Z,25.92
2024-01-06T03:31:11.996Z,26.03
2024-01-06T03:33:15.154Z,25.02
2024-01-06T03:35:18.360Z,25.20
2024-01-06T03:37:21.387Z,25.58
2024-01-06T03:39:24.498Z,26.20
2024-01-06T03:41:27.679Z,26.35
2024-01-06T03:43:30.829Z,26.73
2024-01-06T03:45:35.340Z,26.55
2024-01-06T03:47:38.549Z,24.77
2024-01-06T03:49:41.897Z,24.63
2024-01-06T03:51:45.133Z,24.50
2024-01-06T03:53:48.158Z,26.40
2024-01-06T03:55:51.270Z,26.27
2024-01-06T03:57:54.355Z,25.23
2024-01-06T03:59:57.434Z,25.83
2024-01-06T04:02:02.006Z,26.27
2024-01-06T04:04:05.429Z,25.47
2024-01-06T04:06:08.764Z,26.00
2024-01-06T04:08:11.797Z,25.85
2024-01-06T04:10:14.847Z,24.17
2024-01-06T04:12:18.516Z,25.33
2024-01-06T04:14:21.454Z,25.60
2024-01-06T04:16:24.639Z,24.92
2024-01-06T04:18:29.282Z,25.20
2024-01-06T04:20:32.636Z,26.97
2024-01-06T04:22:35.851Z,23.98
2024-01-06T04:24:39.854Z,25.02
2024-01-06T04:26:46.362Z,26.00
2024-01-06T04:28:49.445Z,25.95
2024-01-06T04:30:54.222Z,24.92
2024-01-06T04:32:58.927Z,25.15
2024-01-06T04:35:04.423Z,27.20
2024-01-06T04:39:10.034Z,25.50
2024-01-06T04:41:13.152Z,24.55
2024-01-06T04:43:16.100Z,23.75
2024-01-06T04:45:20.987Z,24.48
2024-01-06T04:47:24.893Z,24.30
2024-01-06T04:49:27.998Z,24.90
2024-01-06T04:51:32.586Z,25.52
2024-01-06T04:53:35.623Z,24.63
2024-01-06T04:55:38.652Z,24.25
2024-01-06T04:57:41.964Z,25.25
2024-01-06T04:59:44.938Z,23.85
2024-01-06T05:01:47.954Z,24.75
2024-01-06T05:03:51.101Z,24.25
2024-01-06T05:05:54.141Z,25.65
2024-01-06T05:07:59.759Z,23.40
2024-01-06T05:10:03.700Z,23.40
2024-01-06T05:12:07.047Z,25.05
2024-01-06T05:14:10.173Z,25.70
2024-01-06T05:16:13.278Z,25.85
2024-01-06T05:18:16.491Z,26.52
2024-01-06T05:20:19.772Z,27.70
2024-01-06T05:22:22.900Z,30.90
2024-01-06T05:24:27.347Z,30.95
2024-01-06T05:26:30.905Z,30.27
2024-01-06T05:28:33.874Z,30.70
2024-01-06T05:30:37.297Z,29.58
2024-01-06T05:32:40.526Z,29.90
2024-01-06T05:34:43.769Z,28.58
2024-01-06T05:36:47.208Z,30.40
2024-01-06T05:38:53.256Z,29.10
2024-01-06T05:40:58.220Z,27.98
2024-01-06T05:43:01.329Z,27.63
2024-01-06T05:45:04.698Z,27.48
2024-01-06T05:47:08.126Z,27.80
2024-01-06T05:49:11.954Z,28.67
2024-01-06T05:51:14.996Z,28.35
2024-01-06T05:53:19.871Z,29.42
2024-01-06T05:55:23.686Z,29.85
2024-01-06T05:57:28.300Z,27.02
2024-01-06T05:59:34.525Z,25.05
2024-01-06T06:01:37.709Z,27.42
2024-01-06T06:03:41.351Z,26.67
2024-01-06T06:05:44.703Z,28.15
2024-01-06T06:07:48.075Z,27.20
2024-01-06T06:09:51.151Z,29.95
2024-01-06T06:11:54.249Z,29.52
2024-01-06T06:13:58.657Z,26.70
2024-01-06T06:16:01.813Z,27.60
2024-01-06T06:18:05.513Z,28.73
2024-01-06T06:20:09.242Z,26.98
2024-01-06T06:22:12.189Z,30.00
2024-01-06T06:24:15.311Z,28.52
2024-01-06T06:26:18.420Z,26.98
2024-01-06T06:28:21.691Z,29.05
2024-01-06T06:30:26.353Z,28.90
2024-01-06T06:32:29.697Z,28.25
2024-01-06T06:34:33.108Z,27.98
2024-01-06T06:36:36.475Z,28.15
2024-01-06T06:38:39.618Z,35.45
2024-01-06T06:40:43.142Z,35.20
2024-01-06T06:42:46.277Z,33.03
2024-01-06T06:44:49.508Z,30.42
2024-01-06T06:46:54.006Z,33.60
2024-01-06T06:48:57.237Z,37.47
2024-01-06T06:51:00.416Z,38.47
2024-01-06T06:53:03.761Z,38.33
2024-01-06T06:55:08.354Z,37.72
2024-01-06T06:57:11.507Z,38.25
2024-01-06T06:59:14.915Z,36.92
2024-01-06T07:01:18.621Z,37.80
2024-01-06T07:03:23.347Z,38.58
2024-01-06T07:05:26.481Z,36.22
2024-01-06T07:07:29.827Z,35.58
2024-01-06T07:09:32.851Z,35.60
2024-01-06T07:11:35.985Z,35.83
2024-01-06T07:13:39.202Z,35.42
2024-01-06T07:15:42.790Z,37.88
2024-01-06T07:17:46.475Z,38.33
2024-01-06T07:19:52.075Z,39.63
2024-01-06T07:21:55.157Z,39.15
2024-01-06T07:23:58.626Z,36.78
2024-01-06T07:26:01.919Z,34.28
2024-01-06T07:28:05.384Z,35.92
2024-01-06T07:30:12.183Z,35.60
2024-01-06T07:32:15.503Z,36.90
2024-01-06T07:34:18.670Z,36.90
2024-01-06T07:36:23.968Z,38.92
2024-01-06T07:38:27.116Z,42.03
2024-01-06T07:40:30.279Z,42.58
2024-01-06T07:42:33.426Z,43.60
2024-01-06T07:44:36.612Z,39.90
2024-01-06T07:46:41.584Z,41.05
2024-01-06T07:48:44.901Z,38.70
2024-01-06T07:50:48.221Z,42.63
2024-01-06T07:52:53.126Z,42.88
2024-01-06T07:54:56.892Z,41.97
2024-01-06T07:57:00.711Z,39.65
2024-01-06T07:59:03.913Z,40.85
2024-01-06T08:01:07.048Z,41.95
2024-01-06T08:03:10.317Z,41.47
2024-01-06T08:05:13.272Z,40.45
2024-01-06T08:07:16.433Z,40.33
2024-01-06T08:09:20.995Z,40.65
2024-01-06T08:11:24.094Z,39.10
2024-01-06T08:13:27.011Z,39.45
2024-01-06T08:15:30.110Z,40.25
2024-01-06T08:17:33.377Z,40.88
2024-01-06T08:19:37.436Z,38.97
2024-01-06T08:21:40.573Z,37.15
2024-01-06T08:23:43.708Z,36.70
2024-01-06T08:25:48.280Z,38.17
2024-01-06T08:27:51.386Z,37.80
2024-01-06T08:29:54.425Z,36.70
2024-01-06T08:31:58.034Z,35.97
2024-01-06T08:34:01.259Z,35.22
2024-01-06T08:36:05.020Z,37.75
2024-01-06T08:38:08.197Z,36.90
2024-01-06T08:40:12.240Z,37.78
2024-01-06T08:42:16.708Z,39.17
2024-01-06T08:44:19.780Z,39.27
2024-01-06T08:46:23.299Z,38.85
2024-01-06T08:48:26.521Z,38.42
2024-01-06T08:50:29.529Z,38.25
2024-01-06T08:52:32.879Z,39.63
2024-01-06T08:54:36.495Z,42.10
2024-01-06T08:56:39.818Z,43.42
2024-01-06T08:58:44.360Z,40.05
2024-01-06T09:00:47.503Z,42.03
2024-01-06T09:02:50.915Z,40.88
2024-01-06T09:04:54.094Z,40.47
2024-01-06T09:06:57.077Z,42.25
2024-01-06T09:09:00.166Z,42.33
2024-01-06T09:11:03.182Z,43.03
2024-01-06T09:13:06.358Z,44.85
2024-01-06T09:15:11.282Z,45.15
2024-01-06T09:17:15.053Z,44.53
2024-01-06T09:19:18.282Z,37.83
2024-01-06T09:21:21.629Z,41.88
2024-01-06T09:23:25.587Z,48.53
2024-01-06T09:25:28.731Z,44.88
2024-01-06T09:27:31.829Z,47.58
2024-01-06T09:29:35.376Z,46.45
2024-01-06T09:31:40.579Z,47.25
2024-01-06T09:35:46.681Z,45.42
2024-01-06T09:37:50.117Z,44.80
2024-01-06T09:39:53.108Z,45.80
2024-01-06T09:41:56.252Z,45.33
2024-01-06T09:43:59.306Z,46.33
2024-01-06T09:46:08.860Z,46.15
2024-01-06T09:48:15.130Z,45.15
2024-01-06T09:50:20.888Z,43.70
2024-01-06T09:52:24.614Z,44.17
2024-01-06T09:54:35.294Z,40.65
2024-01-06T09:56:38.707Z,41.38
2024-01-06T09:58:42.757Z,43.40
2024-01-06T10:00:45.934Z,44.22
2024-01-06T10:02:50.446Z,45.50
2024-01-06T10:04:55.181Z,45.33
2024-01-06T10:06:58.367Z,50.70
2024-01-06T10:09:01.656Z,49.92
2024-01-06T10:11:05.030Z,49.75
2024-01-06T10:13:08.391Z,51.92
2024-01-06T10:15:13.846Z,51.28
2024-01-06T10:17:17.505Z,51.55
2024-01-06T10:19:21.380Z,51.63
2024-01-06T10:21:27.211Z,52.03
2024-01-06T10:23:31.057Z,51.63
2024-01-06T10:25:34.367Z,49.10
2024-01-06T10:27:38.197Z,46.47
2024-01-06T10:29:41.721Z,47.40
2024-01-06T10:31:45.014Z,47.10
2024-01-06T10:33:48.372Z,49.10
2024-01-06T10:35:51.805Z,48.63
2024-01-06T10:37:56.346Z,46.05
2024-01-06T10:40:13.902Z,48.78
2024-01-06T10:42:17.689Z,47.45
2024-01-06T10:44:22.496Z,44.38
2024-01-06T10:46:26.834Z,44.57
2024-01-06T10:48:33.488Z,45.58
2024-01-06T10:50:36.723Z,44.53
2024-01-06T10:52:40.660Z,46.00
2024-01-06T10:54:46.588Z,45.65
2024-01-06T10:56:52.994Z,46.50
2024-01-06T10:58:58.056Z,41.42
2024-01-06T11:01:01.704Z,42.53
2024-01-06T11:03:06.862Z,46.10
2024-01-06T11:05:12.106Z,46.08
2024-01-06T11:07:17.135Z,45.42
2024-01-06T11:09:24.377Z,47.38
2024-01-06T11:11:29.753Z,46.03
2024-01-06T11:13:32.809Z,45.83
2024-01-06T11:15:43.296Z,44.05
2024-01-06T11:17:57.382Z,46.15
2024-01-06T11:20:07.891Z,43.67
2024-01-06T11:22:29.901Z,45.63
2024-01-06T11:24:38.968Z,43.55
2024-01-06T11:26:44.681Z,44.47
2024-01-06T11:31:08.381Z,43.45
2024-01-06T11:33:12.146Z,44.67
2024-01-06T11:35:16.430Z,43.78
2024-01-06T11:37:21.948Z,39.33
2024-01-06T11:41:51.393Z,42.55
2024-01-06T11:43:55.079Z,42.22
2024-01-06T11:46:02.292Z,43.40
2024-01-06T11:48:07.617Z,41.28
2024-01-06T11:50:11.601Z,40.28
2024-01-06T11:52:15.782Z,40.42
2024-01-06T11:54:20.054Z,42.75
2024-01-06T11:56:26.301Z,43.90
2024-01-06T11:58:30.823Z,42.42
2024-01-06T12:00:34.359Z,40.33
2024-01-06T12:02:37.384Z,40.10
2024-01-06T12:04:42.513Z,36.45
2024-01-06T12:06:45.712Z,38.10
2024-01-06T12:08:49.347Z,37.42
2024-01-06T12:10:52.387Z,37.85
2024-01-06T12:13:02.401Z,37.53
2024-01-06T12:15:10.336Z,40.13
2024-01-06T12:17:14.792Z,39.35
2024-01-06T12:19:17.916Z,38.30
2024-01-06T12:21:21.105Z,38.45
2024-01-06T12:23:29.249Z,37.35
2024-01-06T12:25:38.451Z,38.22
2024-01-06T12:27:44.337Z,36.58
2024-01-06T12:29:47.450Z,37.70
2024-01-06T12:31:52.434Z,35.55
2024-01-06T12:33:55.988Z,30.58
2024-01-06T12:36:03.429Z,34.60
2024-01-06T12:38:11.362Z,28.52
2024-01-06T12:40:18.450Z,29.77
2024-01-06T12:42:23.664Z,33.42
2024-01-06T12:44:26.804Z,32.40
2024-01-06T12:46:29.949Z,34.80
2024-01-06T12:48:34.666Z,34.08
2024-01-06T12:50:37.775Z,35.65
2024-01-06T12:52:41.143Z,32.67
2024-01-06T12:54:47.462Z,33.83
2024-01-06T12:56:51.228Z,31.75
2024-01-06T12:58:54.658Z,32.80
2024-01-06T13:00:58.489Z,32.85
2024-01-06T13:03:01.638Z,32.28
2024-01-06T13:05:06.708Z,31.08
2024-01-06T13:07:09.917Z,32.70
2024-01-06T13:09:17.965Z,34.45
2024-01-06T13:11:21.734Z,32.22
2024-01-06T13:13:24.804Z,30.88
2024-01-06T13:15:28.038Z,33.42
2024-01-06T13:17:31.230Z,32.97
2024-01-06T13:19:35.566Z,33.10
2024-01-06T13:21:40.921Z,32.92
2024-01-06T13:23:44.146Z,32.72
2024-01-06T13:25:47.342Z,32.47
2024-01-06T13:27:50.517Z,37.78
2024-01-06T13:29:53.584Z,32.03
2024-01-06T13:31:56.982Z,33.75
2024-01-06T13:34:00.122Z,37.92
2024-01-06T13:36:03.288Z,37.67
2024-01-06T13:38:07.789Z,35.90
2024-01-06T13:40:11.985Z,35.70
2024-01-06T13:42:16.408Z,34.92
2024-01-06T13:44:20.813Z,33.92
2024-01-06T13:46:23.858Z,32.47
2024-01-06T13:48:27.013Z,32.25
2024-01-06T13:50:30.218Z,31.85
2024-01-06T13:52:33.331Z,31.20
2024-01-06T13:54:37.849Z,31.52
2024-01-06T13:56:41.054Z,31.50
2024-01-06T13:58:44.088Z,31.52
2024-01-06T14:00:47.632Z,31.52
2024-01-06T14:02:50.799Z,31.33
2024-01-06T14:04:54.138Z,30.50
2024-01-06T14:07:00.217Z,32.45
2024-01-06T14:09:07.076Z,34.05
2024-01-06T14:11:11.558Z,33.28
2024-01-06T14:13:14.651Z,35.63
2024-01-06T14:15:17.934Z,37.47
2024-01-06T14:17:21.040Z,38.28
2024-01-06T14:19:25.296Z,38.13
2024-01-06T14:21:29.660Z,38.90
2024-01-06T14:23:34.084Z,36.85
2024-01-06T14:25:37.351Z,36.22
2024-01-06T14:27:41.970Z,34.20
2024-01-06T14:29:45.212Z,36.65
2024-01-06T14:31:48.401Z,36.20
2024-01-06T14:33:51.606Z,33.85
2024-01-06T14:35:54.984Z,32.45
2024-01-06T14:37:58.404Z,30.13
2024-01-06T14:40:06.577Z,31.08
2024-01-06T14:42:11.032Z,31.60
2024-01-06T14:44:15.636Z,31.00
2024-01-06T14:46:20.135Z,31.40
2024-01-06T14:48:23.624Z,30.77
2024-01-06T14:50:26.896Z,30.75
2024-01-06T14:52:29.885Z,30.17
2024-01-06T14:54:34.810Z,30.00
2024-01-06T14:56:42.721Z,30.45
2024-01-06T14:58:46.917Z,31.63
2024-01-06T15:00:51.731Z,32.72
2024-01-06T15:02:54.800Z,27.90
2024-01-06T15:04:58.041Z,29.85
2024-01-06T15:07:02.032Z,30.02
2024-01-06T15:09:05.119Z,31.63
2024-01-06T15:11:09.728Z,30.98
2024-01-06T15:13:12.791Z,31.10
2024-01-06T15:15:16.126Z,30.38
2024-01-06T15:17:20.719Z,32.20
2024-01-06T15:19:29.098Z,30.73
2024-01-06T15:21:35.287Z,30.92
2024-01-06T15:23:38.468Z,29.70
2024-01-06T15:25:43.626Z,30.67
2024-01-06T15:27:48.926Z,30.15
2024-01-06T15:29:52.040Z,31.75
2024-01-06T15:31:58.589Z,29.95
2024-01-06T15:34:03.466Z,35.83
2024-01-06T15:36:07.118Z,39.40
2024-01-06T15:38:10.069Z,38.92
2024-01-06T15:40:13.303Z,39.60
2024-01-06T15:42:16.512Z,38.53
2024-01-06T15:44:19.844Z,34.40
2024-01-06T15:46:23.199Z,30.38
2024-01-06T15:48:26.658Z,33.75
2024-01-06T15:50:31.812Z,33.28
2024-01-06T15:52:35.290Z,34.85
2024-01-06T15:54:38.310Z,32.40
2024-01-06T15:56:41.506Z,27.10
2024-01-06T15:58:44.564Z,30.85
2024-01-06T16:00:47.950Z,32.63
2024-01-06T16:02:52.040Z,32.05
2024-01-06T16:04:56.130Z,33.55
2024-01-06T16:07:00.725Z,33.15
2024-01-06T16:09:07.218Z,31.70
2024-01-06T16:11:12.572Z,33.22
2024-01-06T16:13:16.045Z,34.28
2024-01-06T16:15:21.724Z,34.13
2024-01-06T16:17:24.915Z,35.05
2024-01-06T16:19:28.645Z,32.50
2024-01-06T16:21:32.742Z,36.20
2024-01-06T16:23:37.366Z,35.47
2024-01-06T16:25:40.570Z,34.53
2024-01-06T16:27:44.007Z,34.90
2024-01-06T16:29:47.681Z,32.78
2024-01-06T16:31:51.069Z,33.35
2024-01-06T16:33:54.315Z,32.17
2024-01-06T16:35:58.902Z,33.90
2024-01-06T16:38:02.997Z,34.72
2024-01-06T16:40:12.105Z,33.45
2024-01-06T16:42:15.378Z,32.83
2024-01-06T16:44:19.553Z,30.77
2024-01-06T16:46:22.554Z,33.20
2024-01-06T16:48:25.646Z,33.05
2024-01-06T16:50:29.006Z,31.70
2024-01-06T16:52:31.931Z,34.42
2024-01-06T16:54:35.022Z,32.05
2024-01-06T16:56:39.657Z,32.08
2024-01-06T16:58:44.487Z,22.27
2024-01-06T17:00:47.661Z,34.65
2024-01-06T17:02:50.763Z,31.88
2024-01-06T17:04:54.009Z,29.55
2024-01-06T17:06:58.706Z,32.25
2024-01-06T17:09:01.843Z,32.03
2024-01-06T17:11:05.562Z,31.67
2024-01-06T17:13:09.998Z,31.95
2024-01-06T17:15:15.069Z,30.05
2024-01-06T17:17:18.282Z,30.45
2024-01-06T17:19:21.434Z,26.95
2024-01-06T17:21:24.452Z,27.48
2024-01-06T17:23:27.481Z,26.42
2024-01-06T17:25:30.449Z,27.38
2024-01-06T17:27:33.500Z,27.05
2024-01-06T17:29:38.250Z,26.23
2024-01-06T17:31:41.595Z,26.35
2024-01-06T17:33:44.709Z,27.73
2024-01-06T17:35:48.750Z,26.30
2024-01-06T17:37:51.771Z,27.27
2024-01-06T17:39:54.897Z,25.45
2024-01-06T17:42:00.391Z,25.10
2024-01-06T17:44:04.486Z,25.88
2024-01-06T17:46:09.495Z,26.67
2024-01-06T17:48:12.732Z,25.90
2024-01-06T17:50:15.764Z,27.73
2024-01-06T17:52:19.358Z,25.80
2024-01-06T17:54:22.414Z,25.30
2024-01-06T17:56:25.856Z,27.40
2024-01-06T17:58:28.845Z,27.65
2024-01-06T18:00:32.948Z,26.23
2024-01-06T18:02:39.000Z,25.52
2024-01-06T18:04:43.236Z,24.35
2024-01-06T18:06:46.529Z,25.60
2024-01-06T18:08:49.881Z,26.45
2024-01-06T18:10:52.868Z,25.50
2024-01-06T18:12:55.947Z,26.50
2024-01-06T18:14:59.656Z,24.10
2024-01-06T18:17:02.707Z,23.50
2024-01-06T18:19:07.733Z,21.85
2024-01-06T18:21:11.467Z,21.88
2024-01-06T18:23:14.750Z,22.50
2024-01-06T18:25:17.934Z,22.13
2024-01-06T18:27:21.007Z,24.83
2024-01-06T18:29:24.360Z,25.15
2024-01-06T18:31:27.660Z,25.10
2024-01-06T18:33:31.170Z,24.88
2024-01-06T18:35:35.869Z,23.90
2024-01-06T18:37:38.874Z,23.67
2024-01-06T18:39:42.032Z,16.92
2024-01-06T18:41:45.208Z,19.50
2024-01-06T18:43:48.213Z,18.95
2024-01-06T18:45:51.350Z,18.10
2024-01-06T18:47:54.416Z,18.20
2024-01-06T18:49:57.899Z,17.40
2024-01-06T18:52:02.982Z,17.15
2024-01-06T18:54:06.631Z,16.67
2024-01-06T18:56:12.390Z,17.50
2024-01-06T18:58:15.500Z,14.88
2024-01-06T19:00:20.895Z,14.13
2024-01-06T19:02:24.295Z,13.98
2024-01-06T19:04:27.294Z,14.13
2024-01-06T19:06:31.900Z,12.43
2024-01-06T19:08:36.332Z,13.13
2024-01-06T19:10:39.395Z,13.35
2024-01-06T19:12:42.875Z,14.13
2024-01-06T19:14:47.252Z,14.60
2024-01-06T19:16:50.364Z,15.73
2024-01-06T19:18:53.480Z,15.93
2024-01-06T19:20:56.468Z,13.70
2024-01-06T19:23:06.709Z,16.15
2024-01-06T19:25:14.294Z,13.30
2024-01-06T19:27:17.871Z,14.35
2024-01-06T19:29:20.882Z,14.23
2024-01-06T19:31:24.115Z,14.48
2024-01-06T19:33:27.598Z,14.00
2024-01-06T19:35:33.064Z,13.68
2024-01-06T19:37:36.322Z,15.95
2024-01-06T19:39:39.679Z,14.10
2024-01-06T19:41:44.225Z,14.68
2024-01-06T19:43:47.303Z,14.30
2024-01-06T19:45:55.498Z,13.15
2024-01-06T19:47:58.942Z,12.27
2024-01-06T19:50:03.205Z,11.68
2024-01-06T19:52:07.265Z,12.15
2024-01-06T19:54:11.983Z,11.30
2024-01-06T19:56:16.572Z,11.85
2024-01-06T19:58:21.102Z,11.30
2024-01-06T20:00:26.158Z,12.07
2024-01-06T20:02:29.066Z,12.35
2024-01-06T20:04:32.162Z,12.52
2024-01-06T20:06:35.990Z,13.68
2024-01-06T20:08:39.050Z,13.38
2024-01-06T20:10:42.293Z,13.32
2024-01-06T20:12:45.500Z,12.38
2024-01-06T20:14:50.027Z,11.48
2024-01-06T20:16:54.482Z,11.82
2024-01-06T20:18:58.117Z,12.18
2024-01-06T20:21:03.751Z,11.32
2024-01-06T20:25:10.470Z,11.68
2024-01-06T20:29:17.617Z,11.15
2024-01-06T20:31:22.261Z,11.43
2024-01-06T20:33:27.304Z,10.82
2024-01-06T20:35:30.707Z,11.45
2024-01-06T20:37:33.847Z,10.60
2024-01-06T20:39:42.826Z,10.48
2024-01-06T20:41:46.692Z,10.68
2024-01-06T20:43:50.105Z,11.75
2024-01-06T20:45:54.897Z,11.35
2024-01-06T20:47:59.390Z,11.60
2024-01-06T20:50:02.549Z,10.98
2024-01-06T20:52:06.505Z,11.88
2024-01-06T20:54:10.077Z,13.82
2024-01-06T20:56:14.780Z,12.57
2024-01-06T20:58:17.882Z,11.75
2024-01-06T21:00:21.546Z,12.02
2024-01-06T21:02:24.794Z,11.68
2024-01-06T21:04:29.286Z,11.68
2024-01-06T21:06:32.361Z,11.93
2024-01-06T21:08:35.382Z,12.27
2024-01-06T21:10:38.695Z,12.60
2024-01-06T21:12:41.832Z,11.93
2024-01-06T21:14:45.102Z,12.50
2024-01-06T21:16:48.156Z,12.13
2024-01-06T21:18:51.423Z,11.88
2024-01-06T21:20:56.257Z,12.60
2024-01-06T21:22:59.517Z,12.73
2024-01-06T21:25:04.612Z,13.90
2024-01-06T21:27:07.874Z,13.32
2024-01-06T21:29:11.817Z,13.18
2024-01-06T21:31:16.503Z,13.95
2024-01-06T21:33:19.798Z,12.35
2024-01-06T21:35:22.935Z,13.35
2024-01-06T21:37:29.389Z,13.70
2024-01-06T21:39:32.600Z,12.60
2024-01-06T21:41:35.552Z,13.27
2024-01-06T21:43:38.711Z,13.18
2024-01-06T21:45:42.066Z,12.35
2024-01-06T21:47:45.210Z,13.68
2024-01-06T21:49:48.315Z,12.60
2024-01-06T21:51:52.728Z,13.32
2024-01-06T21:53:58.003Z,13.10
2024-01-06T21:56:01.214Z,12.93
2024-01-06T21:58:04.712Z,12.63
2024-01-06T22:00:13.755Z,12.45
2024-01-06T22:02:16.721Z,12.40
2024-01-06T22:04:19.816Z,12.95
2024-01-06T22:06:22.902Z,12.32
2024-01-06T22:08:26.017Z,12.80
2024-01-06T22:10:34.140Z,12.23
2024-01-06T22:12:37.482Z,13.15
2024-01-06T22:14:40.596Z,13.02
2024-01-06T22:16:43.903Z,13.70
2024-01-06T22:18:46.958Z,12.98
2024-01-06T22:20:50.206Z,13.18
2024-01-06T22:22:53.439Z,12.52
2024-01-06T22:24:56.635Z,12.65
2024-01-06T22:27:01.076Z,14.18
2024-01-06T22:29:04.832Z,14.37
2024-01-06T22:31:08.378Z,13.82
2024-01-06T22:33:11.715Z,13.07
2024-01-06T22:35:15.773Z,13.90
2024-01-06T22:37:18.934Z,13.65
2024-01-06T22:39:26.641Z,12.65
2024-01-06T22:41:29.794Z,11.98
2024-01-06T22:43:34.305Z,11.82
2024-01-06T22:45:39.577Z,10.77
2024-01-06T22:47:43.132Z,10.90
2024-01-06T22:49:46.209Z,11.82
2024-01-06T22:51:49.144Z,11.93
2024-01-06T22:53:52.565Z,12.30
2024-01-06T22:55:55.494Z,12.80
2024-01-06T22:57:58.661Z,11.75
2024-01-06T23:00:11.966Z,11.35
2024-01-06T23:02:15.688Z,10.93
2024-01-06T23:04:18.835Z,11.07
2024-01-06T23:06:22.136Z,11.68
2024-01-06T23:08:25.071Z,11.20
2024-01-06T23:10:28.064Z,12.20
2024-01-06T23:12:31.116Z,10.82
2024-01-06T23:14:34.239Z,10.98
2024-01-06T23:16:38.878Z,11.13
2024-01-06T23:18:42.324Z,12.00
2024-01-06T23:20:45.517Z,11.85
2024-01-06T23:22:48.742Z,10.43
2024-01-06T23:24:51.778Z,10.15
2024-01-06T23:26:54.874Z,11.40
2024-01-06T23:28:58.001Z,10.20
2024-01-06T23:31:01.176Z,10.82
2024-01-06T23:33:06.273Z,9.95
2024-01-06T23:35:10.099Z,10.38
2024-01-06T23:37:13.205Z,11.27
2024-01-06T23:39:16.215Z,10.30
2024-01-06T23:41:19.480Z,10.48
2024-01-06T23:43:22.609Z,12.73
2024-01-06T23:45:26.809Z,12.15
2024-01-06T23:47:29.889Z,11.98
2024-01-06T23:49:34.589Z,11.48
2024-01-06T23:51:37.719Z,11.65
2024-01-06T23:53:41.095Z,10.63
2024-01-06T23:55:44.239Z,11.98
2024-01-06T23:57:48.360Z,10.88
2024-01-06T23:59:51.331Z,9.93
